createdAt,value
2022-10-09T00:03:04.689Z,4.20
2022-10-09T00:08:06.582Z,4.10
2022-10-09T00:13:08.420Z,4.40
2022-10-09T00:18:11.528Z,4.87
2022-10-09T00:23:15.296Z,3.57
2022-10-09T00:28:16.953Z,4.37
2022-10-09T00:33:19.556Z,4.10
2022-10-09T00:38:21.227Z,4.63
2022-10-09T00:43:39.721Z,3.67
2022-10-09T00:48:41.538Z,4.10
2022-10-09T00:53:43.359Z,5.53
2022-10-09T00:58:47.006Z,5.17
2022-10-09T01:03:48.915Z,3.90
2022-10-09T01:09:09.198Z,6.43
2022-10-09T01:14:43.349Z,6.00
2022-10-09T01:19:56.977Z,3.97
2022-10-09T01:25:06.318Z,4.10
2022-10-09T01:30:11.249Z,4.97
2022-10-09T01:35:14.596Z,4.97
2022-10-09T01:40:17.299Z,4.37
2022-10-09T01:45:18.923Z,3.57
2022-10-09T01:50:32.030Z,4.10
2022-10-09T01:55:46.368Z,5.13
2022-10-09T02:01:10.734Z,4.93
2022-10-09T02:06:13.384Z,5.03
2022-10-09T02:11:15.408Z,3.77
2022-10-09T02:16:21.628Z,4.17
2022-10-09T02:21:27.349Z,4.33
2022-10-09T02:26:29.249Z,4.17
2022-10-09T02:31:33.963Z,4.53
2022-10-09T02:36:37.685Z,4.47
2022-10-09T02:41:40.000Z,4.47
2022-10-09T02:46:41.855Z,3.93
2022-10-09T02:51:43.522Z,3.90
2022-10-09T02:56:45.146Z,4.10
2022-10-09T03:01:47.060Z,4.13
2022-10-09T03:06:48.898Z,8.23
2022-10-09T03:11:50.780Z,4.07
2022-10-09T03:16:52.426Z,4.33
2022-10-09T03:21:54.171Z,4.83
2022-10-09T03:26:55.813Z,4.10
2022-10-09T03:31:57.505Z,4.77
2022-10-09T03:36:59.625Z,5.40
2022-10-09T03:42:01.276Z,4.80
2022-10-09T03:47:03.031Z,4.77
2022-10-09T03:52:04.819Z,5.77
2022-10-09T03:57:06.603Z,6.00
2022-10-09T04:02:08.193Z,4.27
2022-10-09T04:07:09.861Z,4.30
2022-10-09T04:12:11.589Z,4.20
2022-10-09T04:17:13.309Z,4.40
2022-10-09T04:22:15.145Z,4.97
2022-10-09T04:27:16.822Z,4.80
2022-10-09T04:32:18.497Z,5.67
2022-10-09T04:37:20.186Z,4.40
2022-10-09T04:42:21.714Z,5.13
2022-10-09T04:47:23.269Z,5.37
2022-10-09T04:52:25.486Z,4.53
2022-10-09T04:57:26.940Z,5.33
2022-10-09T05:02:28.437Z,4.57
2022-10-09T05:07:29.905Z,4.50
2022-10-09T05:12:31.361Z,5.47
2022-10-09T05:17:32.969Z,6.10
2022-10-09T05:22:34.468Z,6.07
2022-10-09T05:27:35.956Z,5.73
2022-10-09T05:32:37.421Z,5.10
2022-10-09T05:37:38.909Z,5.50
2022-10-09T05:42:40.676Z,5.17
2022-10-09T05:47:42.339Z,4.80
2022-10-09T05:52:43.973Z,5.30
2022-10-09T05:57:45.562Z,4.73
2022-10-09T06:02:47.594Z,8.30
2022-10-09T06:07:49.697Z,5.17
2022-10-09T06:12:51.918Z,7.17
2022-10-09T06:17:53.694Z,5.23
2022-10-09T06:22:55.635Z,5.63
2022-10-09T06:27:57.959Z,5.60
2022-10-09T06:32:59.776Z,5.60
2022-10-09T06:38:01.476Z,5.27
2022-10-09T06:43:04.353Z,5.13
2022-10-09T06:48:06.153Z,3.97
2022-10-09T06:53:07.688Z,4.17
2022-10-09T06:58:09.449Z,2.93
2022-10-09T07:03:11.329Z,3.20
2022-10-09T07:08:13.153Z,3.10
2022-10-09T07:13:14.748Z,3.00
2022-10-09T07:18:16.395Z,2.90
2022-10-09T07:23:18.166Z,3.03
2022-10-09T07:28:19.919Z,2.73
2022-10-09T07:33:21.605Z,3.77
2022-10-09T07:38:24.473Z,2.60
2022-10-09T07:43:26.001Z,2.57
2022-10-09T07:48:28.379Z,3.33
2022-10-09T07:53:35.080Z,2.67
2022-10-09T07:58:37.409Z,4.70
2022-10-09T08:03:38.999Z,2.50
2022-10-09T08:08:40.897Z,2.30
2022-10-09T08:13:43.501Z,2.60
2022-10-09T08:18:45.424Z,2.37
2022-10-09T08:23:47.143Z,2.50
2022-10-09T08:28:54.142Z,2.23
2022-10-09T08:33:57.669Z,2.40
2022-10-09T08:38:59.297Z,2.43
2022-10-09T08:44:25.949Z,2.07
2022-10-09T08:49:33.168Z,1.67
2022-10-09T08:54:36.788Z,2.50
2022-10-09T08:59:38.298Z,1.50
2022-10-09T09:04:45.038Z,2.50
2022-10-09T09:10:10.928Z,2.77
2022-10-09T09:15:26.315Z,2.07
2022-10-09T09:20:43.239Z,2.10
2022-10-09T09:25:46.096Z,1.37
2022-10-09T09:30:50.923Z,7.17
2022-10-09T09:36:05.455Z,2.67
2022-10-09T09:41:06.926Z,2.13
2022-10-09T09:46:20.374Z,1.70
2022-10-09T09:51:29.648Z,1.87
2022-10-09T09:57:06.961Z,2.27
2022-10-09T10:02:21.083Z,1.90
2022-10-09T10:07:34.252Z,2.93
2022-10-09T10:12:44.095Z,2.83
2022-10-09T10:17:47.147Z,1.83
2022-10-09T10:22:53.332Z,3.03
2022-10-09T10:28:06.224Z,1.73
2022-10-09T10:33:13.632Z,3.43
2022-10-09T10:38:20.867Z,2.10
2022-10-09T10:43:52.575Z,3.03
2022-10-09T10:48:54.258Z,1.23
2022-10-09T10:54:23.955Z,2.10
2022-10-09T11:00:05.320Z,3.53
2022-10-09T11:05:19.506Z,2.30
2022-10-09T11:10:39.426Z,3.63
2022-10-09T11:16:11.573Z,1.53
2022-10-09T11:21:16.008Z,3.83
2022-10-09T11:26:36.021Z,2.43
2022-10-09T11:31:42.795Z,1.70
2022-10-09T11:36:45.582Z,1.90
2022-10-09T11:41:48.627Z,2.20
2022-10-09T11:47:01.613Z,2.87
2022-10-09T11:52:24.563Z,2.67
2022-10-09T11:57:28.367Z,1.10
2022-10-09T12:02:31.137Z,1.80
2022-10-09T12:12:38.808Z,1.70
2022-10-09T12:17:48.585Z,1.23
2022-10-09T12:23:14.411Z,1.60
2022-10-09T12:28:30.926Z,2.27
2022-10-09T12:33:41.867Z,4.43
2022-10-09T12:38:43.403Z,2.07
2022-10-09T12:43:46.116Z,0.80
2022-10-09T12:48:47.827Z,1.23
2022-10-09T12:53:51.332Z,0.90
2022-10-09T12:58:53.246Z,1.07
2022-10-09T13:03:59.281Z,1.50
2022-10-09T13:09:06.272Z,1.77
2022-10-09T13:14:24.268Z,1.23
2022-10-09T13:19:28.689Z,3.67
2022-10-09T13:24:30.141Z,1.40
2022-10-09T13:29:31.748Z,1.57
2022-10-09T13:34:33.596Z,1.93
2022-10-09T13:39:35.084Z,1.50
2022-10-09T13:44:36.882Z,2.30
2022-10-09T13:49:38.472Z,1.70
2022-10-09T13:54:40.071Z,1.10
2022-10-09T13:59:41.913Z,1.00
2022-10-09T14:04:43.646Z,1.10
2022-10-09T14:09:45.168Z,1.20
2022-10-09T14:14:46.795Z,2.07
2022-10-09T14:19:48.500Z,1.53
2022-10-09T14:24:49.987Z,1.37
2022-10-09T14:29:54.070Z,1.20
2022-10-09T14:34:58.105Z,1.30
2022-10-09T14:39:59.557Z,1.40
2022-10-09T14:45:01.385Z,1.20
2022-10-09T14:50:02.863Z,1.83
2022-10-09T14:55:04.732Z,1.50
2022-10-09T15:00:06.828Z,1.40
2022-10-09T15:05:08.719Z,0.87
2022-10-09T15:10:10.437Z,0.80
2022-10-09T15:15:11.933Z,2.97
2022-10-09T15:20:13.388Z,1.87
2022-10-09T15:25:16.601Z,1.10
2022-10-09T15:30:18.147Z,1.77
2022-10-09T15:35:19.777Z,1.43
2022-10-09T15:40:21.306Z,1.30
2022-10-09T15:45:22.764Z,2.47
2022-10-09T15:50:24.561Z,1.57
2022-10-09T15:55:26.040Z,3.77
2022-10-09T16:00:27.744Z,1.57
2022-10-09T16:05:29.320Z,2.23
2022-10-09T16:10:30.831Z,2.30
2022-10-09T16:15:32.319Z,1.77
2022-10-09T16:20:35.279Z,2.50
2022-10-09T16:25:37.773Z,2.97
2022-10-09T16:30:41.782Z,1.87
2022-10-09T16:35:43.293Z,1.57
2022-10-09T16:41:02.733Z,1.70
2022-10-09T16:46:15.767Z,1.30
2022-10-09T16:51:24.680Z,2.87
2022-10-09T16:56:28.749Z,1.50
2022-10-09T17:01:30.723Z,1.37
2022-10-09T17:06:32.353Z,2.33
2022-10-09T17:11:34.110Z,1.50
2022-10-09T17:16:38.732Z,2.60
2022-10-09T17:21:40.595Z,5.50
2022-10-09T17:26:42.201Z,6.57
2022-10-09T17:31:43.945Z,2.00
2022-10-09T17:36:47.176Z,2.13
2022-10-09T17:41:48.863Z,2.00
2022-10-09T17:46:50.568Z,2.53
2022-10-09T17:51:52.872Z,4.30
2022-10-09T17:56:54.571Z,2.07
2022-10-09T18:01:56.379Z,1.93
2022-10-09T18:06:58.150Z,2.70
2022-10-09T18:11:59.837Z,3.33
2022-10-09T18:17:01.436Z,2.50
2022-10-09T18:22:03.201Z,1.97
2022-10-09T18:27:05.033Z,3.73
2022-10-09T18:32:06.536Z,3.13
2022-10-09T18:37:08.002Z,2.30
2022-10-09T18:42:09.577Z,2.87
2022-10-09T18:47:16.363Z,2.17
2022-10-09T18:52:18.302Z,1.93
2022-10-09T18:57:20.977Z,2.90
2022-10-09T19:02:26.279Z,3.93
2022-10-09T19:07:27.892Z,3.00
2022-10-09T19:12:29.489Z,3.07
2022-10-09T19:17:31.312Z,3.07
2022-10-09T19:22:32.928Z,2.87
2022-10-09T19:27:34.458Z,4.43
2022-10-09T19:32:36.075Z,2.30
2022-10-09T19:37:37.572Z,2.63
2022-10-09T19:42:39.092Z,2.20
2022-10-09T19:47:40.902Z,2.20
2022-10-09T19:52:42.454Z,3.17
2022-10-09T19:57:44.675Z,3.47
2022-10-09T20:02:46.148Z,2.10
2022-10-09T20:07:47.651Z,2.53
2022-10-09T20:12:49.440Z,2.30
2022-10-09T20:17:51.396Z,3.70
2022-10-09T20:22:54.156Z,2.20
2022-10-09T20:27:55.836Z,2.63
2022-10-09T20:32:59.483Z,3.00
2022-10-09T20:38:01.368Z,2.20
2022-10-09T20:43:03.172Z,2.30
2022-10-09T20:48:05.804Z,2.23
2022-10-09T20:53:09.916Z,2.30
2022-10-09T20:58:11.714Z,4.77
2022-10-09T21:03:13.402Z,2.30
2022-10-09T21:08:14.962Z,3.17
2022-10-09T21:13:16.956Z,2.83
2022-10-09T21:18:19.515Z,2.40
2022-10-09T21:23:21.229Z,2.93
2022-10-09T21:28:23.476Z,2.63
2022-10-09T21:33:25.165Z,2.50
2022-10-09T21:38:26.665Z,3.50
2022-10-09T21:43:28.355Z,3.07
2022-10-09T21:48:30.260Z,4.33
2022-10-09T21:53:32.113Z,4.13
2022-10-09T21:58:34.042Z,5.07
2022-10-09T22:03:36.285Z,2.90
2022-10-09T22:08:37.901Z,3.77
2022-10-09T22:13:39.721Z,3.10
2022-10-09T22:18:41.853Z,4.13
2022-10-09T22:23:43.452Z,3.00
2022-10-09T22:28:46.085Z,3.00
2022-10-09T22:33:53.384Z,3.10
2022-10-09T22:38:57.118Z,3.13
2022-10-09T22:43:59.726Z,5.17
2022-10-09T22:49:01.208Z,3.73
2022-10-09T22:54:02.743Z,3.90
2022-10-09T22:59:05.564Z,3.93
2022-10-09T23:04:10.789Z,3.50
2022-10-09T23:09:14.123Z,2.83
2022-10-09T23:14:16.381Z,6.13
2022-10-09T23:19:18.377Z,2.60
2022-10-09T23:24:20.160Z,3.23
2022-10-09T23:29:21.935Z,2.80
2022-10-09T23:34:23.741Z,3.10
2022-10-09T23:39:25.377Z,2.87
2022-10-09T23:44:27.156Z,2.77
2022-10-09T23:49:28.880Z,2.93
2022-10-09T23:54:30.570Z,2.53
2022-10-09T23:59:32.375Z,2.50
